createdAt,value
2022-12-18T00:04:27.678Z,4.68
2022-12-18T00:09:31.169Z,4.70
2022-12-18T00:14:46.429Z,4.95
2022-12-18T00:19:49.263Z,5.28
2022-12-18T00:24:52.157Z,4.40
2022-12-18T00:29:56.331Z,4.82
2022-12-18T00:34:59.118Z,4.50
2022-12-18T00:40:01.931Z,4.90
2022-12-18T00:45:12.301Z,4.15
2022-12-18T00:50:15.884Z,4.70
2022-12-18T00:55:19.131Z,4.40
2022-12-18T01:00:23.641Z,4.40
2022-12-18T01:05:26.761Z,4.50
2022-12-18T01:10:29.581Z,4.60
2022-12-18T01:15:33.749Z,4.45
2022-12-18T01:20:36.592Z,4.68
2022-12-18T01:25:40.124Z,4.20
2022-12-18T01:30:44.365Z,4.90
2022-12-18T01:35:47.159Z,4.38
2022-12-18T01:40:50.082Z,4.38
2022-12-18T01:45:54.337Z,4.63
2022-12-18T01:50:57.274Z,4.10
2022-12-18T01:56:01.253Z,4.47
2022-12-18T02:01:05.491Z,4.47
2022-12-18T02:06:17.833Z,4.63
2022-12-18T02:11:30.615Z,4.40
2022-12-18T02:16:44.618Z,4.63
2022-12-18T02:21:53.875Z,4.10
2022-12-18T02:27:00.646Z,4.78
2022-12-18T02:32:06.474Z,4.82
2022-12-18T02:37:14.348Z,4.35
2022-12-18T02:42:19.659Z,4.20
2022-12-18T02:47:25.046Z,4.22
2022-12-18T02:52:35.504Z,4.60
2022-12-18T02:57:47.464Z,4.75
2022-12-18T03:02:57.221Z,4.50
2022-12-18T03:08:05.082Z,4.72
2022-12-18T03:13:14.166Z,4.15
2022-12-18T03:18:22.357Z,4.68
2022-12-18T03:23:29.852Z,4.45
2022-12-18T03:28:37.852Z,4.60
2022-12-18T03:33:43.727Z,4.60
2022-12-18T03:38:46.772Z,4.38
2022-12-18T03:43:56.879Z,4.47
2022-12-18T03:49:07.745Z,4.53
2022-12-18T03:54:11.962Z,4.15
2022-12-18T03:59:18.663Z,4.35
2022-12-18T04:04:23.588Z,4.25
2022-12-18T04:09:27.720Z,4.53
2022-12-18T04:14:36.422Z,4.38
2022-12-18T04:19:39.215Z,4.57
2022-12-18T04:24:42.119Z,4.30
2022-12-18T04:29:46.372Z,4.40
2022-12-18T04:34:49.188Z,4.57
2022-12-18T04:39:52.000Z,3.95
2022-12-18T04:44:56.176Z,4.40
2022-12-18T04:49:58.955Z,4.15
2022-12-18T04:55:01.788Z,4.50
2022-12-18T05:00:07.251Z,4.82
2022-12-18T05:05:10.577Z,4.30
2022-12-18T05:10:13.458Z,4.53
2022-12-18T05:15:17.734Z,4.38
2022-12-18T05:20:20.906Z,4.10
2022-12-18T05:25:24.077Z,4.57
2022-12-18T05:30:29.472Z,4.07
2022-12-18T05:35:32.251Z,4.40
2022-12-18T05:40:35.080Z,4.05
2022-12-18T05:45:40.977Z,3.80
2022-12-18T05:50:46.441Z,4.10
2022-12-18T05:55:49.749Z,4.03
2022-12-18T06:00:53.866Z,4.20
2022-12-18T06:05:56.653Z,3.83
2022-12-18T06:10:59.495Z,4.03
2022-12-18T06:16:05.704Z,4.15
2022-12-18T06:21:08.591Z,3.58
2022-12-18T06:26:14.224Z,3.97
2022-12-18T06:31:18.472Z,3.67
2022-12-18T06:36:21.944Z,4.00
2022-12-18T06:41:25.224Z,3.90
2022-12-18T06:46:29.430Z,3.95
2022-12-18T06:51:32.258Z,3.83
2022-12-18T06:56:35.089Z,3.97
2022-12-18T07:01:39.411Z,3.90
2022-12-18T07:06:42.398Z,3.53
2022-12-18T07:11:45.245Z,3.70
2022-12-18T07:16:49.534Z,3.95
2022-12-18T07:21:52.770Z,3.92
2022-12-18T07:26:55.686Z,4.20
2022-12-18T07:31:59.900Z,4.18
2022-12-18T07:37:03.040Z,4.22
2022-12-18T07:42:23.432Z,3.95
2022-12-18T07:47:29.128Z,4.20
2022-12-18T07:52:32.808Z,3.78
2022-12-18T07:57:55.204Z,3.65
2022-12-18T08:03:00.381Z,3.90
2022-12-18T08:08:03.201Z,3.42
2022-12-18T08:13:05.990Z,3.45
2022-12-18T08:18:14.082Z,3.70
2022-12-18T08:23:17.327Z,4.55
2022-12-18T08:28:20.141Z,4.10
2022-12-18T08:33:24.461Z,4.40
2022-12-18T08:38:27.319Z,3.65
2022-12-18T08:43:48.051Z,3.50
2022-12-18T08:48:53.277Z,3.38
2022-12-18T08:53:56.114Z,3.40
2022-12-18T08:58:59.339Z,3.25
2022-12-18T09:04:03.999Z,3.35
2022-12-18T09:09:07.501Z,3.88
2022-12-18T09:14:11.585Z,3.85
2022-12-18T09:19:15.830Z,3.63
2022-12-18T09:24:19.676Z,3.85
2022-12-18T09:29:22.541Z,3.15
2022-12-18T09:34:26.726Z,3.50
2022-12-18T09:39:29.573Z,3.50
2022-12-18T09:44:44.745Z,3.55
2022-12-18T09:49:53.068Z,3.75
2022-12-18T09:55:00.534Z,3.90
2022-12-18T10:00:10.827Z,4.85
2022-12-18T10:05:18.357Z,3.80
2022-12-18T10:10:31.118Z,98.47
2022-12-18T10:15:41.919Z,78.65
2022-12-18T10:20:50.213Z,53.60
2022-12-18T10:25:57.418Z,46.58
2022-12-18T10:31:01.799Z,38.60
2022-12-18T10:36:07.262Z,34.00
2022-12-18T10:41:27.722Z,31.25
2022-12-18T10:46:32.478Z,28.92
2022-12-18T10:51:39.361Z,27.42
2022-12-18T10:56:42.654Z,24.98
2022-12-18T11:01:52.808Z,24.73
2022-12-18T11:07:01.796Z,23.58
2022-12-18T11:12:08.161Z,21.30
2022-12-18T11:17:25.888Z,21.17
2022-12-18T11:22:32.555Z,20.40
2022-12-18T11:27:35.598Z,19.83
2022-12-18T11:32:41.311Z,19.10
2022-12-18T11:37:51.281Z,17.08
2022-12-18T11:43:00.277Z,16.13
2022-12-18T11:48:06.766Z,15.35
2022-12-18T11:53:14.390Z,15.60
2022-12-18T11:58:31.276Z,14.30
2022-12-18T12:04:17.671Z,14.18
2022-12-18T12:09:29.338Z,12.80
2022-12-18T12:14:49.127Z,14.93
2022-12-18T12:20:00.654Z,13.65
2022-12-18T12:25:17.515Z,12.15
2022-12-18T12:30:23.610Z,12.60
2022-12-18T12:35:38.017Z,12.10
2022-12-18T12:40:55.176Z,12.35
2022-12-18T12:46:05.092Z,11.30
2022-12-18T12:51:15.591Z,11.32
2022-12-18T12:56:22.214Z,10.35
2022-12-18T13:01:33.175Z,10.48
2022-12-18T13:06:45.134Z,10.27
2022-12-18T13:12:08.405Z,9.23
2022-12-18T13:17:35.737Z,9.32
2022-12-18T13:22:42.404Z,8.57
2022-12-18T13:28:01.689Z,9.20
2022-12-18T13:39:35.772Z,9.90
2022-12-18T13:44:42.733Z,9.35
2022-12-18T13:49:46.468Z,9.15
2022-12-18T13:54:54.229Z,9.00
2022-12-18T14:00:00.501Z,9.20
2022-12-18T14:05:03.462Z,8.80
2022-12-18T14:15:44.469Z,8.48
2022-12-18T14:20:53.000Z,8.30
2022-12-18T14:25:59.609Z,7.60
2022-12-18T14:31:06.466Z,7.95
2022-12-18T14:36:18.583Z,8.38
2022-12-18T14:41:22.663Z,9.85
2022-12-18T14:46:34.629Z,8.48
2022-12-18T14:51:38.656Z,8.80
2022-12-18T14:56:47.326Z,10.70
2022-12-18T15:02:04.298Z,9.93
2022-12-18T15:07:16.943Z,9.32
2022-12-18T15:12:30.060Z,9.23
2022-12-18T15:17:34.502Z,8.95
2022-12-18T15:22:38.340Z,8.50
2022-12-18T15:27:47.752Z,8.63
2022-12-18T15:32:52.677Z,8.05
2022-12-18T15:37:55.475Z,8.32
2022-12-18T15:43:15.874Z,8.13
2022-12-18T15:48:24.058Z,8.02
2022-12-18T15:53:29.821Z,7.47
2022-12-18T15:58:33.709Z,7.60
2022-12-18T16:03:38.140Z,7.32
2022-12-18T16:08:41.291Z,7.53
2022-12-18T16:13:44.574Z,7.45
2022-12-18T16:18:48.739Z,7.95
2022-12-18T16:23:51.908Z,6.70
2022-12-18T16:28:54.790Z,6.47
2022-12-18T16:34:15.436Z,6.53
2022-12-18T16:39:18.376Z,6.97
2022-12-18T16:44:21.690Z,6.47
2022-12-18T16:49:25.808Z,6.68
2022-12-18T16:54:30.364Z,6.65
2022-12-18T16:59:36.262Z,6.72
2022-12-18T17:04:40.752Z,6.13
2022-12-18T17:09:43.933Z,6.60
2022-12-18T17:14:46.773Z,6.03
2022-12-18T17:19:51.771Z,6.50
2022-12-18T17:24:54.662Z,6.00
2022-12-18T17:29:57.462Z,6.18
2022-12-18T17:35:06.960Z,6.13
2022-12-18T17:40:11.317Z,5.78
2022-12-18T17:45:14.164Z,5.45
2022-12-18T17:50:18.471Z,5.38
2022-12-18T17:55:21.699Z,5.40
2022-12-18T18:00:24.555Z,5.35
2022-12-18T18:05:28.837Z,5.38
2022-12-18T18:10:33.151Z,5.80
2022-12-18T18:15:41.035Z,5.45
2022-12-18T18:20:45.230Z,5.28
2022-12-18T18:25:55.374Z,5.00
2022-12-18T18:30:58.498Z,5.03
2022-12-18T18:36:03.083Z,5.55
2022-12-18T18:41:06.818Z,5.05
2022-12-18T18:46:13.586Z,4.93
2022-12-18T18:51:21.244Z,5.32
2022-12-18T19:01:52.770Z,5.03
2022-12-18T19:06:57.185Z,5.45
2022-12-18T19:12:17.444Z,5.05
2022-12-18T19:17:23.697Z,5.28
2022-12-18T19:22:32.143Z,5.00
2022-12-18T19:27:38.436Z,4.82
2022-12-18T19:32:41.800Z,4.97
2022-12-18T19:37:46.000Z,4.78
2022-12-18T19:42:48.852Z,5.28
2022-12-18T19:47:51.723Z,4.63
2022-12-18T19:52:55.949Z,5.25
2022-12-18T19:57:59.060Z,5.00
2022-12-18T20:03:09.857Z,4.90
2022-12-18T20:08:20.463Z,4.47
2022-12-18T20:13:23.258Z,4.80
2022-12-18T20:18:26.378Z,5.07
2022-12-18T20:23:30.591Z,4.88
2022-12-18T20:28:35.639Z,4.82
2022-12-18T20:33:39.398Z,4.53
2022-12-18T20:38:44.453Z,4.78
2022-12-18T20:43:48.526Z,4.32
2022-12-18T20:48:51.421Z,4.97
2022-12-18T20:53:56.329Z,4.70
2022-12-18T20:59:00.366Z,4.47
2022-12-18T21:04:03.147Z,4.68
2022-12-18T21:09:07.433Z,4.65
2022-12-18T21:14:12.714Z,4.30
2022-12-18T21:19:17.922Z,5.05
2022-12-18T21:24:22.548Z,4.55
2022-12-18T21:29:27.209Z,4.60
2022-12-18T21:34:31.632Z,4.40
2022-12-18T21:39:35.832Z,4.53
2022-12-18T21:44:42.281Z,4.85
2022-12-18T21:49:45.419Z,4.40
2022-12-18T21:54:49.601Z,4.63
2022-12-18T21:59:52.399Z,4.20
2022-12-18T22:04:55.174Z,4.75
2022-12-18T22:09:59.764Z,5.40
2022-12-18T22:15:05.949Z,5.68
2022-12-18T22:20:10.636Z,5.40
2022-12-18T22:25:14.909Z,5.32
2022-12-18T22:30:17.727Z,4.88
2022-12-18T22:35:20.571Z,6.07
2022-12-18T22:40:32.144Z,6.93
2022-12-18T22:45:38.522Z,5.95
2022-12-18T22:50:41.858Z,6.25
2022-12-18T22:55:46.058Z,6.78
2022-12-18T23:00:48.829Z,6.32
2022-12-18T23:05:51.669Z,6.25
2022-12-18T23:10:57.600Z,6.10
2022-12-18T23:16:00.536Z,6.45
2022-12-18T23:21:07.694Z,5.93
2022-12-18T23:26:14.968Z,6.68
2022-12-18T23:31:21.070Z,6.20
2022-12-18T23:36:24.033Z,6.38
2022-12-18T23:41:30.016Z,6.05
2022-12-18T23:46:34.296Z,6.50
2022-12-18T23:51:40.204Z,6.25
2022-12-18T23:56:44.467Z,6.43
